sensor_id;sensor_type;location;lat;lon;timestamp;P1;durP1;ratioP1;P2;durP2;ratioP2
22610;SDS011;11472;45.494;12.142;2022-10-30T00:00:01;77.50;;;47.30;;
22610;SDS011;11472;45.494;12.142;2022-10-30T00:01:00;77.50;;;47.30;;
22610;SDS011;11472;45.494;12.142;2022-10-30T00:02:00;85.90;;;49.80;;
22610;SDS011;11472;45.494;12.142;2022-10-30T00:03:01;85.90;;;49.80;;
22610;SDS011;11472;45.494;12.142;2022-10-30T00:04:00;85.90;;;49.80;;
22610;SDS011;11472;45.494;12.142;2022-10-30T00:05:00;85.90;;;49.80;;
22610;SDS011;11472;45.494;12.142;2022-10-30T00:06:03;85.90;;;49.80;;
22610;SDS011;11472;45.494;12.142;2022-10-30T00:07:00;85.90;;;49.80;;
22610;SDS011;11472;45.494;12.142;2022-10-30T00:08:01;85.90;;;49.80;;
22610;SDS011;11472;45.494;12.142;2022-10-30T00:09:01;85.90;;;49.80;;
22610;SDS011;11472;45.494;12.142;2022-10-30T00:10:00;85.90;;;49.80;;
22610;SDS011;11472;45.494;12.142;2022-10-30T00:11:05;85.90;;;49.80;;
22610;SDS011;11472;45.494;12.142;2022-10-30T00:12:00;85.90;;;49.80;;
22610;SDS011;11472;45.494;12.142;2022-10-30T00:13:01;85.90;;;49.80;;
22610;SDS011;11472;45.494;12.142;2022-10-30T00:14:00;85.90;;;49.80;;
22610;SDS011;11472;45.494;12.142;2022-10-30T00:15:00;85.90;;;49.80;;
22610;SDS011;11472;45.494;12.142;2022-10-30T00:16:03;85.90;;;49.80;;
22610;SDS011;11472;45.494;12.142;2022-10-30T00:17:00;84.30;;;48.00;;
22610;SDS011;11472;45.494;12.142;2022-10-30T00:18:01;84.30;;;48.00;;
22610;SDS011;11472;45.494;12.142;2022-10-30T00:19:00;84.30;;;48.00;;
22610;SDS011;11472;45.494;12.142;2022-10-30T00:20:01;84.30;;;48.00;;
22610;SDS011;11472;45.494;12.142;2022-10-30T00:21:05;84.30;;;48.00;;
22610;SDS011;11472;45.494;12.142;2022-10-30T00:22:01;84.30;;;48.00;;
22610;SDS011;11472;45.494;12.142;2022-10-30T00:23:00;84.30;;;48.00;;
22610;SDS011;11472;45.494;12.142;2022-10-30T00:24:00;84.30;;;48.00;;
22610;SDS011;11472;45.494;12.142;2022-10-30T00:25:01;84.30;;;48.00;;
22610;SDS011;11472;45.494;12.142;2022-10-30T00:26:04;84.30;;;48.00;;
22610;SDS011;11472;45.494;12.142;2022-10-30T00:27:00;84.30;;;48.00;;
22610;SDS011;11472;45.494;12.142;2022-10-30T00:28:02;84.30;;;48.00;;
22610;SDS011;11472;45.494;12.142;2022-10-30T00:29:00;84.30;;;48.00;;
22610;SDS011;11472;45.494;12.142;2022-10-30T00:30:00;84.30;;;48.00;;
22610;SDS011;11472;45.494;12.142;2022-10-30T00:31:01;84.30;;;48.00;;
22610;SDS011;11472;45.494;12.142;2022-10-30T00:32:00;72.60;;;45.90;;
22610;SDS011;11472;45.494;12.142;2022-10-30T00:33:01;72.60;;;45.90;;
22610;SDS011;11472;45.494;12.142;2022-10-30T00:34:00;72.60;;;45.90;;
22610;SDS011;11472;45.494;12.142;2022-10-30T00:35:00;72.60;;;45.90;;
22610;SDS011;11472;45.494;12.142;2022-10-30T00:36:00;72.60;;;45.90;;
22610;SDS011;11472;45.494;12.142;2022-10-30T00:37:01;72.60;;;45.90;;
22610;SDS011;11472;45.494;12.142;2022-10-30T00:38:01;72.60;;;45.90;;
22610;SDS011;11472;45.494;12.142;2022-10-30T00:39:00;72.60;;;45.90;;
22610;SDS011;11472;45.494;12.142;2022-10-30T00:40:00;72.60;;;45.90;;
22610;SDS011;11472;45.494;12.142;2022-10-30T00:41:00;72.60;;;45.90;;
22610;SDS011;11472;45.494;12.142;2022-10-30T00:42:00;72.60;;;45.90;;
22610;SDS011;11472;45.494;12.142;2022-10-30T00:43:00;72.60;;;45.90;;
22610;SDS011;11472;45.494;12.142;2022-10-30T00:44:00;72.60;;;45.90;;
22610;SDS011;11472;45.494;12.142;2022-10-30T00:45:00;72.60;;;45.90;;
22610;SDS011;11472;45.494;12.142;2022-10-30T00:47:04;78.20;;;49.60;;
22610;SDS011;11472;45.494;12.142;2022-10-30T00:48:01;78.20;;;49.60;;
22610;SDS011;11472;45.494;12.142;2022-10-30T00:49:05;78.20;;;49.60;;
22610;SDS011;11472;45.494;12.142;2022-10-30T00:50:04;78.20;;;49.60;;
22610;SDS011;11472;45.494;12.142;2022-10-30T00:51:00;78.20;;;49.60;;
22610;SDS011;11472;45.494;12.142;2022-10-30T00:52:00;78.20;;;49.60;;
22610;SDS011;11472;45.494;12.142;2022-10-30T00:53:06;78.20;;;49.60;;
22610;SDS011;11472;45.494;12.142;2022-10-30T00:54:01;78.20;;;49.60;;
22610;SDS011;11472;45.494;12.142;2022-10-30T00:55:04;78.20;;;49.60;;
22610;SDS011;11472;45.494;12.142;2022-10-30T00:56:02;78.20;;;49.60;;
22610;SDS011;11472;45.494;12.142;2022-10-30T00:57:02;78.20;;;49.60;;
22610;SDS011;11472;45.494;12.142;2022-10-30T00:58:02;78.20;;;49.60;;
22610;SDS011;11472;45.494;12.142;2022-10-30T00:59:05;78.20;;;49.60;;
22610;SDS011;11472;45.494;12.142;2022-10-30T01:00:01;78.20;;;49.60;;
22610;SDS011;11472;45.494;12.142;2022-10-30T01:01:03;78.20;;;49.60;;
22610;SDS011;11472;45.494;12.142;2022-10-30T01:02:01;79.00;;;47.30;;
22610;SDS011;11472;45.494;12.142;2022-10-30T01:03:01;79.00;;;47.30;;
22610;SDS011;11472;45.494;12.142;2022-10-30T01:04:00;79.00;;;47.30;;
22610;SDS011;11472;45.494;12.142;2022-10-30T01:05:01;79.00;;;47.30;;
22610;SDS011;11472;45.494;12.142;2022-10-30T01:06:03;79.00;;;47.30;;
22610;SDS011;11472;45.494;12.142;2022-10-30T01:07:04;79.00;;;47.30;;
22610;SDS011;11472;45.494;12.142;2022-10-30T01:08:00;79.00;;;47.30;;
22610;SDS011;11472;45.494;12.142;2022-10-30T01:09:01;79.00;;;47.30;;
22610;SDS011;11472;45.494;12.142;2022-10-30T01:10:00;79.00;;;47.30;;
22610;SDS011;11472;45.494;12.142;2022-10-30T01:11:01;79.00;;;47.30;;
22610;SDS011;11472;45.494;12.142;2022-10-30T01:12:00;79.00;;;47.30;;
22610;SDS011;11472;45.494;12.142;2022-10-30T01:13:00;79.00;;;47.30;;
22610;SDS011;11472;45.494;12.142;2022-10-30T01:14:03;79.00;;;47.30;;
22610;SDS011;11472;45.494;12.142;2022-10-30T01:15:00;79.00;;;47.30;;
22610;SDS011;11472;45.494;12.142;2022-10-30T01:17:10;71.30;;;45.40;;
22610;SDS011;11472;45.494;12.142;2022-10-30T01:19:11;71.30;;;45.40;;
22610;SDS011;11472;45.494;12.142;2022-10-30T01:20:21;71.30;;;45.40;;
22610;SDS011;11472;45.494;12.142;2022-10-30T01:24:14;71.30;;;45.40;;
22610;SDS011;11472;45.494;12.142;2022-10-30T01:31:04;71.30;;;45.40;;
22610;SDS011;11472;45.494;12.142;2022-10-30T01:32:13;69.90;;;43.60;;
22610;SDS011;11472;45.494;12.142;2022-10-30T01:34:05;69.90;;;43.60;;
22610;SDS011;11472;45.494;12.142;2022-10-30T01:35:07;69.90;;;43.60;;
22610;SDS011;11472;45.494;12.142;2022-10-30T01:37:04;69.90;;;43.60;;
22610;SDS011;11472;45.494;12.142;2022-10-30T01:38:03;69.90;;;43.60;;
22610;SDS011;11472;45.494;12.142;2022-10-30T01:39:03;69.90;;;43.60;;
22610;SDS011;11472;45.494;12.142;2022-10-30T01:40:10;69.90;;;43.60;;
22610;SDS011;11472;45.494;12.142;2022-10-30T01:41:00;69.90;;;43.60;;
22610;SDS011;11472;45.494;12.142;2022-10-30T01:42:08;69.90;;;43.60;;
22610;SDS011;11472;45.494;12.142;2022-10-30T01:43:00;69.90;;;43.60;;
22610;SDS011;11472;45.494;12.142;2022-10-30T01:44:02;69.90;;;43.60;;
22610;SDS011;11472;45.494;12.142;2022-10-30T01:45:00;69.90;;;43.60;;
22610;SDS011;11472;45.494;12.142;2022-10-30T01:50:15;61.80;;;40.10;;
22610;SDS011;11472;45.494;12.142;2022-10-30T01:52:11;61.80;;;40.10;;
22610;SDS011;11472;45.494;12.142;2022-10-30T01:56:12;61.80;;;40.10;;
22610;SDS011;11472;45.494;12.142;2022-10-30T01:58:20;61.80;;;40.10;;
22610;SDS011;11472;45.494;12.142;2022-10-30T01:59:29;61.80;;;40.10;;
22610;SDS011;11472;45.494;12.142;2022-10-30T02:00:05;61.80;;;40.10;;
22610;SDS011;11472;45.494;12.142;2022-10-30T02:01:00;61.80;;;40.10;;
22610;SDS011;11472;45.494;12.142;2022-10-30T02:02:00;66.10;;;41.10;;
22610;SDS011;11472;45.494;12.142;2022-10-30T02:03:01;66.10;;;41.10;;
22610;SDS011;11472;45.494;12.142;2022-10-30T02:04:01;66.10;;;41.10;;
22610;SDS011;11472;45.494;12.142;2022-10-30T02:05:00;66.10;;;41.10;;
22610;SDS011;11472;45.494;12.142;2022-10-30T02:06:00;66.10;;;41.10;;
22610;SDS011;11472;45.494;12.142;2022-10-30T02:07:00;66.10;;;41.10;;
22610;SDS011;11472;45.494;12.142;2022-10-30T02:08:01;66.10;;;41.10;;
22610;SDS011;11472;45.494;12.142;2022-10-30T02:09:00;66.10;;;41.10;;
22610;SDS011;11472;45.494;12.142;2022-10-30T02:10:02;66.10;;;41.10;;
22610;SDS011;11472;45.494;12.142;2022-10-30T02:11:00;66.10;;;41.10;;
22610;SDS011;11472;45.494;12.142;2022-10-30T02:12:00;66.10;;;41.10;;
22610;SDS011;11472;45.494;12.142;2022-10-30T02:13:00;66.10;;;41.10;;
22610;SDS011;11472;45.494;12.142;2022-10-30T02:14:04;66.10;;;41.10;;
22610;SDS011;11472;45.494;12.142;2022-10-30T02:15:00;66.10;;;41.10;;
22610;SDS011;11472;45.494;12.142;2022-10-30T02:16:00;66.10;;;41.10;;
22610;SDS011;11472;45.494;12.142;2022-10-30T02:17:01;61.10;;;38.50;;
22610;SDS011;11472;45.494;12.142;2022-10-30T02:18:01;61.10;;;38.50;;
22610;SDS011;11472;45.494;12.142;2022-10-30T02:19:01;61.10;;;38.50;;
22610;SDS011;11472;45.494;12.142;2022-10-30T02:20:00;61.10;;;38.50;;
22610;SDS011;11472;45.494;12.142;2022-10-30T02:21:00;61.10;;;38.50;;
22610;SDS011;11472;45.494;12.142;2022-10-30T02:22:00;61.10;;;38.50;;
22610;SDS011;11472;45.494;12.142;2022-10-30T02:23:01;61.10;;;38.50;;
22610;SDS011;11472;45.494;12.142;2022-10-30T02:24:00;61.10;;;38.50;;
22610;SDS011;11472;45.494;12.142;2022-10-30T02:25:00;61.10;;;38.50;;
22610;SDS011;11472;45.494;12.142;2022-10-30T02:26:00;61.10;;;38.50;;
22610;SDS011;11472;45.494;12.142;2022-10-30T02:27:00;61.10;;;38.50;;
22610;SDS011;11472;45.494;12.142;2022-10-30T02:28:00;61.10;;;38.50;;
22610;SDS011;11472;45.494;12.142;2022-10-30T02:29:00;61.10;;;38.50;;
22610;SDS011;11472;45.494;12.142;2022-10-30T02:30:00;61.10;;;38.50;;
22610;SDS011;11472;45.494;12.142;2022-10-30T02:31:00;61.10;;;38.50;;
22610;SDS011;11472;45.494;12.142;2022-10-30T02:32:01;55.20;;;36.70;;
22610;SDS011;11472;45.494;12.142;2022-10-30T02:33:00;55.20;;;36.70;;
22610;SDS011;11472;45.494;12.142;2022-10-30T02:34:00;55.20;;;36.70;;
22610;SDS011;11472;45.494;12.142;2022-10-30T02:35:00;55.20;;;36.70;;
22610;SDS011;11472;45.494;12.142;2022-10-30T02:36:00;55.20;;;36.70;;
22610;SDS011;11472;45.494;12.142;2022-10-30T02:37:00;55.20;;;36.70;;
22610;SDS011;11472;45.494;12.142;2022-10-30T02:38:01;55.20;;;36.70;;
22610;SDS011;11472;45.494;12.142;2022-10-30T02:39:00;55.20;;;36.70;;
22610;SDS011;11472;45.494;12.142;2022-10-30T02:40:02;55.20;;;36.70;;
22610;SDS011;11472;45.494;12.142;2022-10-30T02:41:00;55.20;;;36.70;;
22610;SDS011;11472;45.494;12.142;2022-10-30T02:42:01;55.20;;;36.70;;
22610;SDS011;11472;45.494;12.142;2022-10-30T02:43:00;55.20;;;36.70;;
22610;SDS011;11472;45.494;12.142;2022-10-30T02:44:00;55.20;;;36.70;;
22610;SDS011;11472;45.494;12.142;2022-10-30T02:45:00;55.20;;;36.70;;
22610;SDS011;11472;45.494;12.142;2022-10-30T02:46:00;55.20;;;36.70;;
22610;SDS011;11472;45.494;12.142;2022-10-30T02:47:00;59.70;;;38.60;;
22610;SDS011;11472;45.494;12.142;2022-10-30T02:48:01;59.70;;;38.60;;
22610;SDS011;11472;45.494;12.142;2022-10-30T02:49:01;59.70;;;38.60;;
22610;SDS011;11472;45.494;12.142;2022-10-30T02:50:00;59.70;;;38.60;;
22610;SDS011;11472;45.494;12.142;2022-10-30T02:51:01;59.70;;;38.60;;
22610;SDS011;11472;45.494;12.142;2022-10-30T02:52:00;59.70;;;38.60;;
22610;SDS011;11472;45.494;12.142;2022-10-30T02:53:01;59.70;;;38.60;;
22610;SDS011;11472;45.494;12.142;2022-10-30T02:54:00;59.70;;;38.60;;
22610;SDS011;11472;45.494;12.142;2022-10-30T02:55:00;59.70;;;38.60;;
22610;SDS011;11472;45.494;12.142;2022-10-30T02:56:06;59.70;;;38.60;;
22610;SDS011;11472;45.494;12.142;2022-10-30T02:57:00;59.70;;;38.60;;
22610;SDS011;11472;45.494;12.142;2022-10-30T02:58:00;59.70;;;38.60;;
22610;SDS011;11472;45.494;12.142;2022-10-30T02:59:00;59.70;;;38.60;;
22610;SDS011;11472;45.494;12.142;2022-10-30T03:00:00;59.70;;;38.60;;
22610;SDS011;11472;45.494;12.142;2022-10-30T03:01:09;59.70;;;38.60;;
22610;SDS011;11472;45.494;12.142;2022-10-30T03:02:00;53.70;;;35.50;;
22610;SDS011;11472;45.494;12.142;2022-10-30T03:03:00;53.70;;;35.50;;
22610;SDS011;11472;45.494;12.142;2022-10-30T03:04:00;53.70;;;35.50;;
22610;SDS011;11472;45.494;12.142;2022-10-30T03:05:00;53.70;;;35.50;;
22610;SDS011;11472;45.494;12.142;2022-10-30T03:06:02;53.70;;;35.50;;
22610;SDS011;11472;45.494;12.142;2022-10-30T03:07:00;53.70;;;35.50;;
22610;SDS011;11472;45.494;12.142;2022-10-30T03:08:00;53.70;;;35.50;;
22610;SDS011;11472;45.494;12.142;2022-10-30T03:09:00;53.70;;;35.50;;
22610;SDS011;11472;45.494;12.142;2022-10-30T03:10:00;53.70;;;35.50;;
22610;SDS011;11472;45.494;12.142;2022-10-30T03:11:02;53.70;;;35.50;;
22610;SDS011;11472;45.494;12.142;2022-10-30T03:12:00;53.70;;;35.50;;
22610;SDS011;11472;45.494;12.142;2022-10-30T03:13:00;53.70;;;35.50;;
22610;SDS011;11472;45.494;12.142;2022-10-30T03:14:00;53.70;;;35.50;;
22610;SDS011;11472;45.494;12.142;2022-10-30T03:15:00;53.70;;;35.50;;
22610;SDS011;11472;45.494;12.142;2022-10-30T03:16:03;53.70;;;35.50;;
22610;SDS011;11472;45.494;12.142;2022-10-30T03:17:00;51.30;;;34.90;;
22610;SDS011;11472;45.494;12.142;2022-10-30T03:18:01;51.30;;;34.90;;
22610;SDS011;11472;45.494;12.142;2022-10-30T03:19:00;51.30;;;34.90;;
22610;SDS011;11472;45.494;12.142;2022-10-30T03:20:00;51.30;;;34.90;;
22610;SDS011;11472;45.494;12.142;2022-10-30T03:21:02;51.30;;;34.90;;
22610;SDS011;11472;45.494;12.142;2022-10-30T03:22:00;51.30;;;34.90;;
22610;SDS011;11472;45.494;12.142;2022-10-30T03:23:00;51.30;;;34.90;;
22610;SDS011;11472;45.494;12.142;2022-10-30T03:24:00;51.30;;;34.90;;
22610;SDS011;11472;45.494;12.142;2022-10-30T03:25:00;51.30;;;34.90;;
22610;SDS011;11472;45.494;12.142;2022-10-30T03:26:00;51.30;;;34.90;;
22610;SDS011;11472;45.494;12.142;2022-10-30T03:27:00;51.30;;;34.90;;
22610;SDS011;11472;45.494;12.142;2022-10-30T03:28:01;51.30;;;34.90;;
22610;SDS011;11472;45.494;12.142;2022-10-30T03:29:00;51.30;;;34.90;;
22610;SDS011;11472;45.494;12.142;2022-10-30T03:30:00;51.30;;;34.90;;
22610;SDS011;11472;45.494;12.142;2022-10-30T03:31:04;51.30;;;34.90;;
22610;SDS011;11472;45.494;12.142;2022-10-30T03:32:00;50.20;;;32.20;;
22610;SDS011;11472;45.494;12.142;2022-10-30T03:33:00;50.20;;;32.20;;
22610;SDS011;11472;45.494;12.142;2022-10-30T03:34:00;50.20;;;32.20;;
22610;SDS011;11472;45.494;12.142;2022-10-30T03:35:00;50.20;;;32.20;;
22610;SDS011;11472;45.494;12.142;2022-10-30T03:36:01;50.20;;;32.20;;
22610;SDS011;11472;45.494;12.142;2022-10-30T03:37:00;50.20;;;32.20;;
22610;SDS011;11472;45.494;12.142;2022-10-30T03:38:00;50.20;;;32.20;;
22610;SDS011;11472;45.494;12.142;2022-10-30T03:39:00;50.20;;;32.20;;
22610;SDS011;11472;45.494;12.142;2022-10-30T03:40:00;50.20;;;32.20;;
22610;SDS011;11472;45.494;12.142;2022-10-30T03:41:00;50.20;;;32.20;;
22610;SDS011;11472;45.494;12.142;2022-10-30T03:42:00;50.20;;;32.20;;
22610;SDS011;11472;45.494;12.142;2022-10-30T03:43:00;50.20;;;32.20;;
22610;SDS011;11472;45.494;12.142;2022-10-30T03:44:00;50.20;;;32.20;;
22610;SDS011;11472;45.494;12.142;2022-10-30T03:45:00;50.20;;;32.20;;
22610;SDS011;11472;45.494;12.142;2022-10-30T03:46:00;50.20;;;32.20;;
22610;SDS011;11472;45.494;12.142;2022-10-30T03:47:00;47.50;;;30.90;;
22610;SDS011;11472;45.494;12.142;2022-10-30T03:48:01;47.50;;;30.90;;
22610;SDS011;11472;45.494;12.142;2022-10-30T03:49:00;47.50;;;30.90;;
22610;SDS011;11472;45.494;12.142;2022-10-30T03:50:00;47.50;;;30.90;;
22610;SDS011;11472;45.494;12.142;2022-10-30T03:51:00;47.50;;;30.90;;
22610;SDS011;11472;45.494;12.142;2022-10-30T03:52:00;47.50;;;30.90;;
22610;SDS011;11472;45.494;12.142;2022-10-30T03:53:02;47.50;;;30.90;;
22610;SDS011;11472;45.494;12.142;2022-10-30T03:54:00;47.50;;;30.90;;
22610;SDS011;11472;45.494;12.142;2022-10-30T03:55:00;47.50;;;30.90;;
22610;SDS011;11472;45.494;12.142;2022-10-30T03:56:02;47.50;;;30.90;;
22610;SDS011;11472;45.494;12.142;2022-10-30T03:57:00;47.50;;;30.90;;
22610;SDS011;11472;45.494;12.142;2022-10-30T03:58:00;47.50;;;30.90;;
22610;SDS011;11472;45.494;12.142;2022-10-30T03:59:00;47.50;;;30.90;;
22610;SDS011;11472;45.494;12.142;2022-10-30T04:00:00;47.50;;;30.90;;
22610;SDS011;11472;45.494;12.142;2022-10-30T04:01:03;47.50;;;30.90;;
22610;SDS011;11472;45.494;12.142;2022-10-30T04:02:00;49.10;;;31.00;;
22610;SDS011;11472;45.494;12.142;2022-10-30T04:03:01;49.10;;;31.00;;
22610;SDS011;11472;45.494;12.142;2022-10-30T04:04:00;49.10;;;31.00;;
22610;SDS011;11472;45.494;12.142;2022-10-30T04:05:00;49.10;;;31.00;;
22610;SDS011;11472;45.494;12.142;2022-10-30T04:06:00;49.10;;;31.00;;
22610;SDS011;11472;45.494;12.142;2022-10-30T04:07:00;49.10;;;31.00;;
22610;SDS011;11472;45.494;12.142;2022-10-30T04:08:03;49.10;;;31.00;;
22610;SDS011;11472;45.494;12.142;2022-10-30T04:09:00;49.10;;;31.00;;
22610;SDS011;11472;45.494;12.142;2022-10-30T04:10:00;49.10;;;31.00;;
22610;SDS011;11472;45.494;12.142;2022-10-30T04:11:00;49.10;;;31.00;;
22610;SDS011;11472;45.494;12.142;2022-10-30T04:12:00;49.10;;;31.00;;
22610;SDS011;11472;45.494;12.142;2022-10-30T04:13:05;49.10;;;31.00;;
22610;SDS011;11472;45.494;12.142;2022-10-30T04:14:00;49.10;;;31.00;;
22610;SDS011;11472;45.494;12.142;2022-10-30T04:15:00;49.10;;;31.00;;
22610;SDS011;11472;45.494;12.142;2022-10-30T04:16:00;49.10;;;31.00;;
22610;SDS011;11472;45.494;12.142;2022-10-30T04:17:00;45.90;;;29.30;;
22610;SDS011;11472;45.494;12.142;2022-10-30T04:18:01;45.90;;;29.30;;
22610;SDS011;11472;45.494;12.142;2022-10-30T04:19:00;45.90;;;29.30;;
22610;SDS011;11472;45.494;12.142;2022-10-30T04:20:00;45.90;;;29.30;;
22610;SDS011;11472;45.494;12.142;2022-10-30T04:21:00;45.90;;;29.30;;
22610;SDS011;11472;45.494;12.142;2022-10-30T04:22:00;45.90;;;29.30;;
22610;SDS011;11472;45.494;12.142;2022-10-30T04:23:03;45.90;;;29.30;;
22610;SDS011;11472;45.494;12.142;2022-10-30T04:24:00;45.90;;;29.30;;
22610;SDS011;11472;45.494;12.142;2022-10-30T04:25:00;45.90;;;29.30;;
22610;SDS011;11472;45.494;12.142;2022-10-30T04:26:01;45.90;;;29.30;;
22610;SDS011;11472;45.494;12.142;2022-10-30T04:27:00;45.90;;;29.30;;
22610;SDS011;11472;45.494;12.142;2022-10-30T04:28:01;45.90;;;29.30;;
22610;SDS011;11472;45.494;12.142;2022-10-30T04:29:00;45.90;;;29.30;;
22610;SDS011;11472;45.494;12.142;2022-10-30T04:30:00;45.90;;;29.30;;
22610;SDS011;11472;45.494;12.142;2022-10-30T04:31:00;45.90;;;29.30;;
22610;SDS011;11472;45.494;12.142;2022-10-30T04:32:00;47.50;;;30.80;;
22610;SDS011;11472;45.494;12.142;2022-10-30T04:33:02;47.50;;;30.80;;
22610;SDS011;11472;45.494;12.142;2022-10-30T04:34:00;47.50;;;30.80;;
22610;SDS011;11472;45.494;12.142;2022-10-30T04:35:00;47.50;;;30.80;;
22610;SDS011;11472;45.494;12.142;2022-10-30T04:36:00;47.50;;;30.80;;
22610;SDS011;11472;45.494;12.142;2022-10-30T04:37:00;47.50;;;30.80;;
22610;SDS011;11472;45.494;12.142;2022-10-30T04:38:03;47.50;;;30.80;;
22610;SDS011;11472;45.494;12.142;2022-10-30T04:39:01;47.50;;;30.80;;
22610;SDS011;11472;45.494;12.142;2022-10-30T04:40:00;47.50;;;30.80;;
22610;SDS011;11472;45.494;12.142;2022-10-30T04:41:00;47.50;;;30.80;;
22610;SDS011;11472;45.494;12.142;2022-10-30T04:42:00;47.50;;;30.80;;
22610;SDS011;11472;45.494;12.142;2022-10-30T04:43:02;47.50;;;30.80;;
22610;SDS011;11472;45.494;12.142;2022-10-30T04:44:00;47.50;;;30.80;;
22610;SDS011;11472;45.494;12.142;2022-10-30T04:45:03;47.50;;;30.80;;
22610;SDS011;11472;45.494;12.142;2022-10-30T04:46:03;47.50;;;30.80;;
22610;SDS011;11472;45.494;12.142;2022-10-30T04:47:00;47.00;;;28.60;;
22610;SDS011;11472;45.494;12.142;2022-10-30T04:48:03;47.00;;;28.60;;
22610;SDS011;11472;45.494;12.142;2022-10-30T04:49:00;47.00;;;28.60;;
22610;SDS011;11472;45.494;12.142;2022-10-30T04:50:00;47.00;;;28.60;;
22610;SDS011;11472;45.494;12.142;2022-10-30T04:51:00;47.00;;;28.60;;
22610;SDS011;11472;45.494;12.142;2022-10-30T04:52:00;47.00;;;28.60;;
22610;SDS011;11472;45.494;12.142;2022-10-30T04:53:14;47.00;;;28.60;;
22610;SDS011;11472;45.494;12.142;2022-10-30T04:54:00;47.00;;;28.60;;
22610;SDS011;11472;45.494;12.142;2022-10-30T04:55:01;47.00;;;28.60;;
22610;SDS011;11472;45.494;12.142;2022-10-30T04:56:00;47.00;;;28.60;;
22610;SDS011;11472;45.494;12.142;2022-10-30T04:57:00;47.00;;;28.60;;
22610;SDS011;11472;45.494;12.142;2022-10-30T04:58:02;47.00;;;28.60;;
22610;SDS011;11472;45.494;12.142;2022-10-30T04:59:00;47.00;;;28.60;;
22610;SDS011;11472;45.494;12.142;2022-10-30T05:00:00;47.00;;;28.60;;
22610;SDS011;11472;45.494;12.142;2022-10-30T05:01:04;47.00;;;28.60;;
22610;SDS011;11472;45.494;12.142;2022-10-30T05:02:00;41.20;;;26.70;;
22610;SDS011;11472;45.494;12.142;2022-10-30T05:03:01;41.20;;;26.70;;
22610;SDS011;11472;45.494;12.142;2022-10-30T05:04:01;41.20;;;26.70;;
22610;SDS011;11472;45.494;12.142;2022-10-30T05:05:00;41.20;;;26.70;;
22610;SDS011;11472;45.494;12.142;2022-10-30T05:06:02;41.20;;;26.70;;
22610;SDS011;11472;45.494;12.142;2022-10-30T05:07:02;41.20;;;26.70;;
22610;SDS011;11472;45.494;12.142;2022-10-30T05:08:00;41.20;;;26.70;;
22610;SDS011;11472;45.494;12.142;2022-10-30T05:09:00;41.20;;;26.70;;
22610;SDS011;11472;45.494;12.142;2022-10-30T05:10:00;41.20;;;26.70;;
22610;SDS011;11472;45.494;12.142;2022-10-30T05:11:05;41.20;;;26.70;;
22610;SDS011;11472;45.494;12.142;2022-10-30T05:12:00;41.20;;;26.70;;
22610;SDS011;11472;45.494;12.142;2022-10-30T05:13:00;41.20;;;26.70;;
22610;SDS011;11472;45.494;12.142;2022-10-30T05:14:00;41.20;;;26.70;;
22610;SDS011;11472;45.494;12.142;2022-10-30T05:15:00;41.20;;;26.70;;
22610;SDS011;11472;45.494;12.142;2022-10-30T05:16:00;41.20;;;26.70;;
22610;SDS011;11472;45.494;12.142;2022-10-30T05:17:00;47.60;;;28.50;;
22610;SDS011;11472;45.494;12.142;2022-10-30T05:18:01;47.60;;;28.50;;
22610;SDS011;11472;45.494;12.142;2022-10-30T05:19:00;47.60;;;28.50;;
22610;SDS011;11472;45.494;12.142;2022-10-30T05:20:00;47.60;;;28.50;;
22610;SDS011;11472;45.494;12.142;2022-10-30T05:21:00;47.60;;;28.50;;
22610;SDS011;11472;45.494;12.142;2022-10-30T05:22:00;47.60;;;28.50;;
22610;SDS011;11472;45.494;12.142;2022-10-30T05:23:00;47.60;;;28.50;;
22610;SDS011;11472;45.494;12.142;2022-10-30T05:24:01;47.60;;;28.50;;
22610;SDS011;11472;45.494;12.142;2022-10-30T05:25:00;47.60;;;28.50;;
22610;SDS011;11472;45.494;12.142;2022-10-30T05:26:00;47.60;;;28.50;;
22610;SDS011;11472;45.494;12.142;2022-10-30T05:27:00;47.60;;;28.50;;
22610;SDS011;11472;45.494;12.142;2022-10-30T05:28:02;47.60;;;28.50;;
22610;SDS011;11472;45.494;12.142;2022-10-30T05:29:00;47.60;;;28.50;;
22610;SDS011;11472;45.494;12.142;2022-10-30T05:30:01;47.60;;;28.50;;
22610;SDS011;11472;45.494;12.142;2022-10-30T05:31:00;47.60;;;28.50;;
22610;SDS011;11472;45.494;12.142;2022-10-30T05:32:00;43.50;;;27.90;;
22610;SDS011;11472;45.494;12.142;2022-10-30T05:33:02;43.50;;;27.90;;
22610;SDS011;11472;45.494;12.142;2022-10-30T05:34:02;43.50;;;27.90;;
22610;SDS011;11472;45.494;12.142;2022-10-30T05:35:00;43.50;;;27.90;;
22610;SDS011;11472;45.494;12.142;2022-10-30T05:36:00;43.50;;;27.90;;
22610;SDS011;11472;45.494;12.142;2022-10-30T05:37:00;43.50;;;27.90;;
22610;SDS011;11472;45.494;12.142;2022-10-30T05:38:01;43.50;;;27.90;;
22610;SDS011;11472;45.494;12.142;2022-10-30T05:39:01;43.50;;;27.90;;
22610;SDS011;11472;45.494;12.142;2022-10-30T05:40:00;43.50;;;27.90;;
22610;SDS011;11472;45.494;12.142;2022-10-30T05:41:00;43.50;;;27.90;;
22610;SDS011;11472;45.494;12.142;2022-10-30T05:42:00;43.50;;;27.90;;
22610;SDS011;11472;45.494;12.142;2022-10-30T05:43:01;43.50;;;27.90;;
22610;SDS011;11472;45.494;12.142;2022-10-30T05:44:00;43.50;;;27.90;;
22610;SDS011;11472;45.494;12.142;2022-10-30T05:45:02;43.50;;;27.90;;
22610;SDS011;11472;45.494;12.142;2022-10-30T05:46:00;43.50;;;27.90;;
22610;SDS011;11472;45.494;12.142;2022-10-30T05:47:00;243.50;;;173.40;;
22610;SDS011;11472;45.494;12.142;2022-10-30T05:48:03;243.50;;;173.40;;
22610;SDS011;11472;45.494;12.142;2022-10-30T05:49:00;243.50;;;173.40;;
22610;SDS011;11472;45.494;12.142;2022-10-30T05:50:00;243.50;;;173.40;;
22610;SDS011;11472;45.494;12.142;2022-10-30T05:51:00;243.50;;;173.40;;
22610;SDS011;11472;45.494;12.142;2022-10-30T05:52:00;243.50;;;173.40;;
22610;SDS011;11472;45.494;12.142;2022-10-30T05:53:02;243.50;;;173.40;;
22610;SDS011;11472;45.494;12.142;2022-10-30T05:54:00;243.50;;;173.40;;
22610;SDS011;11472;45.494;12.142;2022-10-30T05:55:00;243.50;;;173.40;;
22610;SDS011;11472;45.494;12.142;2022-10-30T05:56:00;243.50;;;173.40;;
22610;SDS011;11472;45.494;12.142;2022-10-30T05:57:00;243.50;;;173.40;;
22610;SDS011;11472;45.494;12.142;2022-10-30T05:58:03;243.50;;;173.40;;
22610;SDS011;11472;45.494;12.142;2022-10-30T05:59:00;243.50;;;173.40;;
22610;SDS011;11472;45.494;12.142;2022-10-30T06:00:00;243.50;;;173.40;;
22610;SDS011;11472;45.494;12.142;2022-10-30T06:01:05;243.50;;;173.40;;
22610;SDS011;11472;45.494;12.142;2022-10-30T06:02:00;37.80;;;25.40;;
22610;SDS011;11472;45.494;12.142;2022-10-30T06:03:01;37.80;;;25.40;;
22610;SDS011;11472;45.494;12.142;2022-10-30T06:04:00;37.80;;;25.40;;
22610;SDS011;11472;45.494;12.142;2022-10-30T06:05:00;37.80;;;25.40;;
22610;SDS011;11472;45.494;12.142;2022-10-30T06:06:00;37.80;;;25.40;;
22610;SDS011;11472;45.494;12.142;2022-10-30T06:07:00;37.80;;;25.40;;
22610;SDS011;11472;45.494;12.142;2022-10-30T06:08:01;37.80;;;25.40;;